sensor_id;sensor_type;location;lat;lon;timestamp;temperature;humidity
4635;DHT22;2330;48.158;11.816;2023-06-19T00:00:29;20.50;82.80
4635;DHT22;2330;48.158;11.816;2023-06-19T00:02:57;20.50;82.70
4635;DHT22;2330;48.158;11.816;2023-06-19T00:05:24;20.50;82.50
4635;DHT22;2330;48.158;11.816;2023-06-19T00:07:52;20.50;82.90
4635;DHT22;2330;48.158;11.816;2023-06-19T00:10:19;20.60;82.80
4635;DHT22;2330;48.158;11.816;2023-06-19T00:12:46;20.60;83.20
4635;DHT22;2330;48.158;11.816;2023-06-19T00:15:14;20.70;83.60
4635;DHT22;2330;48.158;11.816;2023-06-19T00:17:41;20.70;84.20
4635;DHT22;2330;48.158;11.816;2023-06-19T00:20:08;20.50;84.90
4635;DHT22;2330;48.158;11.816;2023-06-19T00:22:36;20.50;85.10
4635;DHT22;2330;48.158;11.816;2023-06-19T00:25:03;20.40;84.80
4635;DHT22;2330;48.158;11.816;2023-06-19T00:27:30;20.40;84.80
4635;DHT22;2330;48.158;11.816;2023-06-19T00:29:57;20.50;84.90
4635;DHT22;2330;48.158;11.816;2023-06-19T00:32:29;20.40;85.00
4635;DHT22;2330;48.158;11.816;2023-06-19T00:34:56;20.40;84.90
4635;DHT22;2330;48.158;11.816;2023-06-19T00:37:23;20.50;84.00
4635;DHT22;2330;48.158;11.816;2023-06-19T00:39:50;20.60;83.20
4635;DHT22;2330;48.158;11.816;2023-06-19T00:42:16;20.60;83.40
4635;DHT22;2330;48.158;11.816;2023-06-19T00:44:43;20.70;83.30
4635;DHT22;2330;48.158;11.816;2023-06-19T00:47:10;20.70;83.90
4635;DHT22;2330;48.158;11.816;2023-06-19T00:49:37;20.60;85.20
4635;DHT22;2330;48.158;11.816;2023-06-19T00:52:05;20.50;85.70
4635;DHT22;2330;48.158;11.816;2023-06-19T00:54:32;20.40;85.20
4635;DHT22;2330;48.158;11.816;2023-06-19T00:56:59;20.30;84.40
4635;DHT22;2330;48.158;11.816;2023-06-19T00:59:26;20.20;84.30
4635;DHT22;2330;48.158;11.816;2023-06-19T01:01:53;20.20;84.50
4635;DHT22;2330;48.158;11.816;2023-06-19T01:04:20;20.40;84.30
4635;DHT22;2330;48.158;11.816;2023-06-19T01:07:02;20.50;83.90
4635;DHT22;2330;48.158;11.816;2023-06-19T01:09:51;20.60;83.70
4635;DHT22;2330;48.158;11.816;2023-06-19T01:12:23;20.60;83.90
4635;DHT22;2330;48.158;11.816;2023-06-19T01:14:57;20.70;83.60
4635;DHT22;2330;48.158;11.816;2023-06-19T01:17:28;20.80;83.70
4635;DHT22;2330;48.158;11.816;2023-06-19T01:19:56;20.70;83.90
4635;DHT22;2330;48.158;11.816;2023-06-19T01:22:32;20.80;83.80
4635;DHT22;2330;48.158;11.816;2023-06-19T01:24:59;20.90;83.40
4635;DHT22;2330;48.158;11.816;2023-06-19T01:27:26;20.90;83.40
4635;DHT22;2330;48.158;11.816;2023-06-19T01:29:58;20.90;84.00
4635;DHT22;2330;48.158;11.816;2023-06-19T01:32:34;20.90;85.00
4635;DHT22;2330;48.158;11.816;2023-06-19T01:35:04;20.90;86.10
4635;DHT22;2330;48.158;11.816;2023-06-19T01:37:34;20.70;86.40
4635;DHT22;2330;48.158;11.816;2023-06-19T01:40:04;20.70;86.10
4635;DHT22;2330;48.158;11.816;2023-06-19T01:42:33;20.70;85.80
4635;DHT22;2330;48.158;11.816;2023-06-19T01:45:01;20.70;85.80
4635;DHT22;2330;48.158;11.816;2023-06-19T01:47:29;20.70;85.20
4635;DHT22;2330;48.158;11.816;2023-06-19T01:49:56;20.70;85.20
4635;DHT22;2330;48.158;11.816;2023-06-19T01:52:24;20.70;85.60
4635;DHT22;2330;48.158;11.816;2023-06-19T01:54:51;20.60;85.80
4635;DHT22;2330;48.158;11.816;2023-06-19T01:57:18;20.60;85.40
4635;DHT22;2330;48.158;11.816;2023-06-19T01:59:45;20.70;85.20
4635;DHT22;2330;48.158;11.816;2023-06-19T02:02:12;20.80;85.10
4635;DHT22;2330;48.158;11.816;2023-06-19T02:04:38;20.80;85.30
4635;DHT22;2330;48.158;11.816;2023-06-19T02:07:05;20.70;86.40
4635;DHT22;2330;48.158;11.816;2023-06-19T02:09:32;20.60;86.40
4635;DHT22;2330;48.158;11.816;2023-06-19T02:11:59;20.70;86.30
4635;DHT22;2330;48.158;11.816;2023-06-19T02:14:26;20.70;86.30
4635;DHT22;2330;48.158;11.816;2023-06-19T02:16:53;20.60;86.80
4635;DHT22;2330;48.158;11.816;2023-06-19T02:19:19;20.60;86.80
4635;DHT22;2330;48.158;11.816;2023-06-19T02:21:46;20.60;86.60
4635;DHT22;2330;48.158;11.816;2023-06-19T02:24:13;20.60;86.40
4635;DHT22;2330;48.158;11.816;2023-06-19T02:26:40;20.60;86.60
4635;DHT22;2330;48.158;11.816;2023-06-19T02:29:07;20.50;86.40
4635;DHT22;2330;48.158;11.816;2023-06-19T02:31:34;20.40;86.10
4635;DHT22;2330;48.158;11.816;2023-06-19T02:34:00;20.30;87.60
4635;DHT22;2330;48.158;11.816;2023-06-19T02:36:27;20.20;87.80
4635;DHT22;2330;48.158;11.816;2023-06-19T02:38:55;20.10;88.30
4635;DHT22;2330;48.158;11.816;2023-06-19T02:41:21;20.20;87.40
4635;DHT22;2330;48.158;11.816;2023-06-19T02:43:48;20.30;87.70
4635;DHT22;2330;48.158;11.816;2023-06-19T02:46:16;20.40;87.50
4635;DHT22;2330;48.158;11.816;2023-06-19T02:48:43;20.40;87.40
4635;DHT22;2330;48.158;11.816;2023-06-19T02:51:10;20.40;87.50
4635;DHT22;2330;48.158;11.816;2023-06-19T02:53:36;20.50;87.80
4635;DHT22;2330;48.158;11.816;2023-06-19T02:56:04;20.50;88.00
4635;DHT22;2330;48.158;11.816;2023-06-19T02:58:31;20.40;87.90
4635;DHT22;2330;48.158;11.816;2023-06-19T03:00:58;20.40;87.90
4635;DHT22;2330;48.158;11.816;2023-06-19T03:03:25;20.40;87.70
4635;DHT22;2330;48.158;11.816;2023-06-19T03:05:52;20.30;87.50
4635;DHT22;2330;48.158;11.816;2023-06-19T03:08:19;20.40;87.70
4635;DHT22;2330;48.158;11.816;2023-06-19T03:10:46;20.40;87.50
4635;DHT22;2330;48.158;11.816;2023-06-19T03:13:13;20.40;88.20
4635;DHT22;2330;48.158;11.816;2023-06-19T03:15:40;20.40;88.20
4635;DHT22;2330;48.158;11.816;2023-06-19T03:18:07;20.30;89.30
4635;DHT22;2330;48.158;11.816;2023-06-19T03:20:36;20.30;89.20
4635;DHT22;2330;48.158;11.816;2023-06-19T03:23:03;20.20;89.90
4635;DHT22;2330;48.158;11.816;2023-06-19T03:25:30;20.10;90.20
4635;DHT22;2330;48.158;11.816;2023-06-19T03:28:02;20.10;89.80
4635;DHT22;2330;48.158;11.816;2023-06-19T03:30:37;20.20;90.00
4635;DHT22;2330;48.158;11.816;2023-06-19T03:33:04;20.20;89.30
4635;DHT22;2330;48.158;11.816;2023-06-19T03:35:31;20.10;88.80
4635;DHT22;2330;48.158;11.816;2023-06-19T03:37:58;19.90;89.40
4635;DHT22;2330;48.158;11.816;2023-06-19T03:40:24;19.90;89.90
4635;DHT22;2330;48.158;11.816;2023-06-19T03:42:51;19.80;90.50
4635;DHT22;2330;48.158;11.816;2023-06-19T03:45:18;19.80;90.70
4635;DHT22;2330;48.158;11.816;2023-06-19T03:47:45;19.80;90.30
4635;DHT22;2330;48.158;11.816;2023-06-19T03:50:12;19.90;90.30
4635;DHT22;2330;48.158;11.816;2023-06-19T03:52:47;20.00;90.30
4635;DHT22;2330;48.158;11.816;2023-06-19T03:55:17;19.90;90.00
4635;DHT22;2330;48.158;11.816;2023-06-19T03:57:44;20.00;90.20
4635;DHT22;2330;48.158;11.816;2023-06-19T04:00:11;20.10;90.30
4635;DHT22;2330;48.158;11.816;2023-06-19T04:02:39;20.10;90.20
4635;DHT22;2330;48.158;11.816;2023-06-19T04:05:07;20.20;88.40
4635;DHT22;2330;48.158;11.816;2023-06-19T04:07:34;20.30;87.80
4635;DHT22;2330;48.158;11.816;2023-06-19T04:10:03;20.30;89.10
4635;DHT22;2330;48.158;11.816;2023-06-19T04:12:44;20.40;88.60
4635;DHT22;2330;48.158;11.816;2023-06-19T04:15:12;20.40;88.50
4635;DHT22;2330;48.158;11.816;2023-06-19T04:17:39;20.40;88.20
4635;DHT22;2330;48.158;11.816;2023-06-19T04:20:06;20.50;87.50
4635;DHT22;2330;48.158;11.816;2023-06-19T04:22:46;20.50;87.30
4635;DHT22;2330;48.158;11.816;2023-06-19T04:25:13;20.50;87.20
4635;DHT22;2330;48.158;11.816;2023-06-19T04:27:40;20.50;87.20
4635;DHT22;2330;48.158;11.816;2023-06-19T04:30:07;20.50;87.20
4635;DHT22;2330;48.158;11.816;2023-06-19T04:32:34;20.50;87.40
4635;DHT22;2330;48.158;11.816;2023-06-19T04:35:02;20.50;87.30
4635;DHT22;2330;48.158;11.816;2023-06-19T04:37:29;20.50;87.10
4635;DHT22;2330;48.158;11.816;2023-06-19T04:39:56;20.60;87.10
4635;DHT22;2330;48.158;11.816;2023-06-19T04:42:23;20.50;87.20
4635;DHT22;2330;48.158;11.816;2023-06-19T04:44:50;20.50;87.30
4635;DHT22;2330;48.158;11.816;2023-06-19T04:47:19;20.50;87.30
4635;DHT22;2330;48.158;11.816;2023-06-19T04:49:47;20.50;87.20
4635;DHT22;2330;48.158;11.816;2023-06-19T04:52:14;20.50;87.10
4635;DHT22;2330;48.158;11.816;2023-06-19T04:54:41;20.60;87.00
4635;DHT22;2330;48.158;11.816;2023-06-19T04:57:07;20.70;87.00
4635;DHT22;2330;48.158;11.816;2023-06-19T04:59:34;20.60;87.10
4635;DHT22;2330;48.158;11.816;2023-06-19T05:02:01;20.70;87.10
4635;DHT22;2330;48.158;11.816;2023-06-19T05:04:28;20.80;87.00
4635;DHT22;2330;48.158;11.816;2023-06-19T05:06:59;20.80;87.40
4635;DHT22;2330;48.158;11.816;2023-06-19T05:09:26;20.90;87.10
4635;DHT22;2330;48.158;11.816;2023-06-19T05:11:53;20.90;86.80
4635;DHT22;2330;48.158;11.816;2023-06-19T05:14:20;20.90;86.90
4635;DHT22;2330;48.158;11.816;2023-06-19T05:16:47;20.90;86.90
4635;DHT22;2330;48.158;11.816;2023-06-19T05:19:14;20.90;87.10
4635;DHT22;2330;48.158;11.816;2023-06-19T05:21:41;20.90;87.90
4635;DHT22;2330;48.158;11.816;2023-06-19T05:24:10;20.90;87.40
4635;DHT22;2330;48.158;11.816;2023-06-19T05:26:37;21.00;87.60
4635;DHT22;2330;48.158;11.816;2023-06-19T05:29:03;21.00;87.60
4635;DHT22;2330;48.158;11.816;2023-06-19T05:31:30;21.10;87.40
4635;DHT22;2330;48.158;11.816;2023-06-19T05:33:57;21.10;87.60
4635;DHT22;2330;48.158;11.816;2023-06-19T05:36:25;21.30;87.60
4635;DHT22;2330;48.158;11.816;2023-06-19T05:38:52;21.40;87.20
4635;DHT22;2330;48.158;11.816;2023-06-19T05:41:19;21.50;87.00
4635;DHT22;2330;48.158;11.816;2023-06-19T05:43:46;21.70;86.80
4635;DHT22;2330;48.158;11.816;2023-06-19T05:46:13;21.80;86.40
4635;DHT22;2330;48.158;11.816;2023-06-19T05:48:40;21.80;86.00
4635;DHT22;2330;48.158;11.816;2023-06-19T05:51:07;21.90;86.40
4635;DHT22;2330;48.158;11.816;2023-06-19T05:53:34;22.00;86.10
4635;DHT22;2330;48.158;11.816;2023-06-19T05:56:01;22.20;86.10
4635;DHT22;2330;48.158;11.816;2023-06-19T05:58:28;22.30;86.20
4635;DHT22;2330;48.158;11.816;2023-06-19T06:00:55;22.40;85.70
4635;DHT22;2330;48.158;11.816;2023-06-19T06:03:25;22.50;85.10
4635;DHT22;2330;48.158;11.816;2023-06-19T06:05:52;22.60;84.80
4635;DHT22;2330;48.158;11.816;2023-06-19T06:08:19;22.70;84.70
4635;DHT22;2330;48.158;11.816;2023-06-19T06:10:46;22.70;84.60
4635;DHT22;2330;48.158;11.816;2023-06-19T06:13:13;22.70;84.00
4635;DHT22;2330;48.158;11.816;2023-06-19T06:15:40;22.70;83.80
4635;DHT22;2330;48.158;11.816;2023-06-19T06:18:07;22.60;83.90
4635;DHT22;2330;48.158;11.816;2023-06-19T06:20:34;22.50;84.00
4635;DHT22;2330;48.158;11.816;2023-06-19T06:23:01;22.60;84.00
4635;DHT22;2330;48.158;11.816;2023-06-19T06:25:28;22.60;84.20
4635;DHT22;2330;48.158;11.816;2023-06-19T06:27:55;22.60;84.40
4635;DHT22;2330;48.158;11.816;2023-06-19T06:30:22;22.60;84.70
4635;DHT22;2330;48.158;11.816;2023-06-19T06:32:50;22.50;84.70
4635;DHT22;2330;48.158;11.816;2023-06-19T06:35:17;22.60;84.70
4635;DHT22;2330;48.158;11.816;2023-06-19T06:37:44;22.60;84.60
4635;DHT22;2330;48.158;11.816;2023-06-19T06:40:13;22.60;84.70
4635;DHT22;2330;48.158;11.816;2023-06-19T06:42:40;22.60;84.80
4635;DHT22;2330;48.158;11.816;2023-06-19T06:45:07;22.60;85.80
4635;DHT22;2330;48.158;11.816;2023-06-19T06:47:35;22.60;85.60
4635;DHT22;2330;48.158;11.816;2023-06-19T06:50:02;22.60;85.80
4635;DHT22;2330;48.158;11.816;2023-06-19T06:52:29;22.70;85.40
4635;DHT22;2330;48.158;11.816;2023-06-19T06:54:57;22.70;85.20
4635;DHT22;2330;48.158;11.816;2023-06-19T06:57:24;22.70;85.20
4635;DHT22;2330;48.158;11.816;2023-06-19T06:59:51;22.80;85.20
4635;DHT22;2330;48.158;11.816;2023-06-19T07:02:18;22.80;85.30
4635;DHT22;2330;48.158;11.816;2023-06-19T07:04:45;22.90;84.90
4635;DHT22;2330;48.158;11.816;2023-06-19T07:07:12;23.00;85.10
4635;DHT22;2330;48.158;11.816;2023-06-19T07:09:39;23.20;84.80
4635;DHT22;2330;48.158;11.816;2023-06-19T07:12:06;23.30;84.10
4635;DHT22;2330;48.158;11.816;2023-06-19T07:14:34;23.40;83.80
4635;DHT22;2330;48.158;11.816;2023-06-19T07:17:01;23.50;83.70
4635;DHT22;2330;48.158;11.816;2023-06-19T07:19:28;23.70;83.70
4635;DHT22;2330;48.158;11.816;2023-06-19T07:21:56;23.70;83.50
4635;DHT22;2330;48.158;11.816;2023-06-19T07:24:23;23.80;83.20
4635;DHT22;2330;48.158;11.816;2023-06-19T07:26:50;23.80;83.10
4635;DHT22;2330;48.158;11.816;2023-06-19T07:29:17;23.90;83.10
4635;DHT22;2330;48.158;11.816;2023-06-19T07:31:44;24.00;83.00
4635;DHT22;2330;48.158;11.816;2023-06-19T07:34:11;24.00;83.00
4635;DHT22;2330;48.158;11.816;2023-06-19T07:36:38;24.10;82.80
4635;DHT22;2330;48.158;11.816;2023-06-19T07:39:05;24.20;82.70
4635;DHT22;2330;48.158;11.816;2023-06-19T07:41:32;24.40;82.10
4635;DHT22;2330;48.158;11.816;2023-06-19T07:43:59;24.60;81.20
4635;DHT22;2330;48.158;11.816;2023-06-19T07:46:26;24.70;81.20
4635;DHT22;2330;48.158;11.816;2023-06-19T07:48:53;24.80;80.50
4635;DHT22;2330;48.158;11.816;2023-06-19T07:51:20;24.90;80.20
4635;DHT22;2330;48.158;11.816;2023-06-19T07:53:47;25.00;80.40
4635;DHT22;2330;48.158;11.816;2023-06-19T07:56:14;25.10;80.30
4635;DHT22;2330;48.158;11.816;2023-06-19T07:58:41;25.20;80.10
4635;DHT22;2330;48.158;11.816;2023-06-19T08:01:08;25.30;80.00
4635;DHT22;2330;48.158;11.816;2023-06-19T08:03:35;25.40;80.10
4635;DHT22;2330;48.158;11.816;2023-06-19T08:06:02;25.50;79.50
4635;DHT22;2330;48.158;11.816;2023-06-19T08:08:29;25.60;79.20
4635;DHT22;2330;48.158;11.816;2023-06-19T08:10:57;25.70;78.20
4635;DHT22;2330;48.158;11.816;2023-06-19T08:13:24;25.90;78.10
4635;DHT22;2330;48.158;11.816;2023-06-19T08:15:51;25.90;78.30
4635;DHT22;2330;48.158;11.816;2023-06-19T08:18:18;26.10;77.60
4635;DHT22;2330;48.158;11.816;2023-06-19T08:20:45;26.30;77.30
4635;DHT22;2330;48.158;11.816;2023-06-19T08:23:12;26.40;77.30
4635;DHT22;2330;48.158;11.816;2023-06-19T08:25:39;26.50;76.70
4635;DHT22;2330;48.158;11.816;2023-06-19T08:28:05;26.50;77.30
4635;DHT22;2330;48.158;11.816;2023-06-19T08:30:33;26.70;76.90
4635;DHT22;2330;48.158;11.816;2023-06-19T08:33:00;27.00;75.10
4635;DHT22;2330;48.158;11.816;2023-06-19T08:35:27;27.30;74.70
4635;DHT22;2330;48.158;11.816;2023-06-19T08:37:54;27.40;75.00
4635;DHT22;2330;48.158;11.816;2023-06-19T08:40:21;27.50;74.30
4635;DHT22;2330;48.158;11.816;2023-06-19T08:42:49;27.60;74.90
4635;DHT22;2330;48.158;11.816;2023-06-19T08:45:16;27.90;74.40
4635;DHT22;2330;48.158;11.816;2023-06-19T08:47:47;27.70;74.10
4635;DHT22;2330;48.158;11.816;2023-06-19T08:50:15;27.70;73.40
4635;DHT22;2330;48.158;11.816;2023-06-19T08:52:42;27.50;74.40
4635;DHT22;2330;48.158;11.816;2023-06-19T08:55:09;27.50;75.40
4635;DHT22;2330;48.158;11.816;2023-06-19T08:57:40;27.30;75.20
4635;DHT22;2330;48.158;11.816;2023-06-19T09:00:08;27.40;75.60
4635;DHT22;2330;48.158;11.816;2023-06-19T09:02:41;27.30;75.50
4635;DHT22;2330;48.158;11.816;2023-06-19T09:05:11;27.50;75.90
4635;DHT22;2330;48.158;11.816;2023-06-19T09:07:38;28.00;74.80
4635;DHT22;2330;48.158;11.816;2023-06-19T09:12:42;28.30;74.30
4635;DHT22;2330;48.158;11.816;2023-06-19T09:15:14;28.40;73.70
4635;DHT22;2330;48.158;11.816;2023-06-19T09:17:41;28.70;73.70
4635;DHT22;2330;48.158;11.816;2023-06-19T09:20:09;28.90;73.40
4635;DHT22;2330;48.158;11.816;2023-06-19T09:22:36;29.00;73.80
4635;DHT22;2330;48.158;11.816;2023-06-19T09:25:04;28.60;72.70
4635;DHT22;2330;48.158;11.816;2023-06-19T09:27:33;28.20;74.00
4635;DHT22;2330;48.158;11.816;2023-06-19T09:30:00;28.50;73.00
4635;DHT22;2330;48.158;11.816;2023-06-19T09:32:28;28.40;74.10
4635;DHT22;2330;48.158;11.816;2023-06-19T09:34:56;28.70;73.90
4635;DHT22;2330;48.158;11.816;2023-06-19T09:37:27;28.90;72.60
4635;DHT22;2330;48.158;11.816;2023-06-19T09:40:00;29.00;71.40
4635;DHT22;2330;48.158;11.816;2023-06-19T09:45:01;29.20;71.00
4635;DHT22;2330;48.158;11.816;2023-06-19T09:47:35;29.20;70.30
4635;DHT22;2330;48.158;11.816;2023-06-19T09:50:03;28.90;71.00
4635;DHT22;2330;48.158;11.816;2023-06-19T09:52:31;28.60;71.40
4635;DHT22;2330;48.158;11.816;2023-06-19T09:55:02;28.50;71.40
4635;DHT22;2330;48.158;11.816;2023-06-19T09:57:29;28.70;71.80
4635;DHT22;2330;48.158;11.816;2023-06-19T09:59:58;28.40;72.00
4635;DHT22;2330;48.158;11.816;2023-06-19T10:02:28;28.30;73.40
4635;DHT22;2330;48.158;11.816;2023-06-19T10:04:56;28.20;72.50
4635;DHT22;2330;48.158;11.816;2023-06-19T10:07:25;28.20;73.10
4635;DHT22;2330;48.158;11.816;2023-06-19T10:10:05;28.50;71.60
4635;DHT22;2330;48.158;11.816;2023-06-19T10:12:40;28.30;70.00
4635;DHT22;2330;48.158;11.816;2023-06-19T10:15:17;28.30;71.20
4635;DHT22;2330;48.158;11.816;2023-06-19T10:17:49;28.70;71.50
4635;DHT22;2330;48.158;11.816;2023-06-19T10:23:05;28.50;70.70
4635;DHT22;2330;48.158;11.816;2023-06-19T10:25:35;28.50;71.10
4635;DHT22;2330;48.158;11.816;2023-06-19T10:28:02;28.50;70.80
4635;DHT22;2330;48.158;11.816;2023-06-19T10:30:33;28.50;71.40
4635;DHT22;2330;48.158;11.816;2023-06-19T10:33:01;28.60;69.50
4635;DHT22;2330;48.158;11.816;2023-06-19T10:35:40;28.90;70.00
4635;DHT22;2330;48.158;11.816;2023-06-19T10:38:08;29.00;69.00
4635;DHT22;2330;48.158;11.816;2023-06-19T10:40:36;29.30;68.50
4635;DHT22;2330;48.158;11.816;2023-06-19T10:43:04;29.20;69.30
4635;DHT22;2330;48.158;11.816;2023-06-19T10:45:31;29.20;69.30
4635;DHT22;2330;48.158;11.816;2023-06-19T10:48:01;29.00;68.80
4635;DHT22;2330;48.158;11.816;2023-06-19T10:50:35;29.10;67.80
4635;DHT22;2330;48.158;11.816;2023-06-19T10:53:04;29.00;67.80
4635;DHT22;2330;48.158;11.816;2023-06-19T10:55:30;29.00;68.10
4635;DHT22;2330;48.158;11.816;2023-06-19T10:58:01;29.30;69.40
4635;DHT22;2330;48.158;11.816;2023-06-19T11:00:32;29.40;69.80
4635;DHT22;2330;48.158;11.816;2023-06-19T11:02:59;29.40;69.10
4635;DHT22;2330;48.158;11.816;2023-06-19T11:05:27;29.70;69.80
4635;DHT22;2330;48.158;11.816;2023-06-19T11:07:58;29.90;68.40
4635;DHT22;2330;48.158;11.816;2023-06-19T11:10:28;29.50;69.60
4635;DHT22;2330;48.158;11.816;2023-06-19T11:12:57;29.70;67.90
4635;DHT22;2330;48.158;11.816;2023-06-19T11:15:31;29.90;68.40
4635;DHT22;2330;48.158;11.816;2023-06-19T11:18:00;30.10;68.30
4635;DHT22;2330;48.158;11.816;2023-06-19T11:20:28;30.00;68.40
4635;DHT22;2330;48.158;11.816;2023-06-19T11:22:59;29.80;68.10
4635;DHT22;2330;48.158;11.816;2023-06-19T11:25:37;30.00;67.90
4635;DHT22;2330;48.158;11.816;2023-06-19T11:28:12;30.30;68.30
4635;DHT22;2330;48.158;11.816;2023-06-19T11:30:41;30.70;68.30
4635;DHT22;2330;48.158;11.816;2023-06-19T11:33:21;30.80;66.70
4635;DHT22;2330;48.158;11.816;2023-06-19T11:35:54;31.00;67.30
4635;DHT22;2330;48.158;11.816;2023-06-19T11:38:25;31.00;67.00
4635;DHT22;2330;48.158;11.816;2023-06-19T11:40:56;30.80;67.30
4635;DHT22;2330;48.158;11.816;2023-06-19T11:43:27;31.10;67.00
4635;DHT22;2330;48.158;11.816;2023-06-19T11:46:15;31.20;66.50
4635;DHT22;2330;48.158;11.816;2023-06-19T11:48:42;31.20;66.10
4635;DHT22;2330;48.158;11.816;2023-06-19T11:51:31;31.30;66.00
4635;DHT22;2330;48.158;11.816;2023-06-19T11:53:58;31.10;66.50
4635;DHT22;2330;48.158;11.816;2023-06-19T11:56:25;31.10;67.10
4635;DHT22;2330;48.158;11.816;2023-06-19T11:58:52;31.10;67.30
4635;DHT22;2330;48.158;11.816;2023-06-19T12:01:19;31.40;66.50
4635;DHT22;2330;48.158;11.816;2023-06-19T12:03:47;31.80;66.00
4635;DHT22;2330;48.158;11.816;2023-06-19T12:06:16;32.00;65.40
4635;DHT22;2330;48.158;11.816;2023-06-19T12:08:44;32.10;64.60
4635;DHT22;2330;48.158;11.816;2023-06-19T12:11:11;32.10;65.10
4635;DHT22;2330;48.158;11.816;2023-06-19T12:13:40;32.10;65.50
4635;DHT22;2330;48.158;11.816;2023-06-19T12:16:10;32.10;66.30
4635;DHT22;2330;48.158;11.816;2023-06-19T12:18:41;32.30;64.60
4635;DHT22;2330;48.158;11.816;2023-06-19T12:21:08;32.30;65.10
4635;DHT22;2330;48.158;11.816;2023-06-19T12:23:50;32.40;64.90
4635;DHT22;2330;48.158;11.816;2023-06-19T12:26:17;32.00;65.30
4635;DHT22;2330;48.158;11.816;2023-06-19T12:28:44;31.50;65.60
4635;DHT22;2330;48.158;11.816;2023-06-19T12:31:11;31.80;65.80
4635;DHT22;2330;48.158;11.816;2023-06-19T12:33:38;31.50;66.40
4635;DHT22;2330;48.158;11.816;2023-06-19T12:36:18;31.50;66.80
4635;DHT22;2330;48.158;11.816;2023-06-19T12:38:53;31.50;66.60
4635;DHT22;2330;48.158;11.816;2023-06-19T12:41:23;31.70;66.30
4635;DHT22;2330;48.158;11.816;2023-06-19T12:43:50;32.00;65.90
4635;DHT22;2330;48.158;11.816;2023-06-19T12:46:17;32.50;65.40
4635;DHT22;2330;48.158;11.816;2023-06-19T12:48:44;32.50;64.70
4635;DHT22;2330;48.158;11.816;2023-06-19T12:51:11;32.80;64.60
4635;DHT22;2330;48.158;11.816;2023-06-19T12:53:38;33.10;64.60
4635;DHT22;2330;48.158;11.816;2023-06-19T12:56:07;33.10;64.30
4635;DHT22;2330;48.158;11.816;2023-06-19T12:58:45;32.90;64.70
4635;DHT22;2330;48.158;11.816;2023-06-19T13:01:11;32.70;64.20
4635;DHT22;2330;48.158;11.816;2023-06-19T13:03:38;32.60;64.80
4635;DHT22;2330;48.158;11.816;2023-06-19T13:06:06;32.60;64.40
4635;DHT22;2330;48.158;11.816;2023-06-19T13:08:34;32.70;64.10
4635;DHT22;2330;48.158;11.816;2023-06-19T13:11:01;32.90;63.70
4635;DHT22;2330;48.158;11.816;2023-06-19T13:13:29;33.00;63.50
4635;DHT22;2330;48.158;11.816;2023-06-19T13:15:56;33.20;63.00
4635;DHT22;2330;48.158;11.816;2023-06-19T13:18:23;33.00;63.90
4635;DHT22;2330;48.158;11.816;2023-06-19T13:20:50;32.90;63.60
4635;DHT22;2330;48.158;11.816;2023-06-19T13:23:17;32.60;64.00
4635;DHT22;2330;48.158;11.816;2023-06-19T13:25:44;33.00;63.70
4635;DHT22;2330;48.158;11.816;2023-06-19T13:28:11;33.30;63.30
4635;DHT22;2330;48.158;11.816;2023-06-19T13:30:38;33.60;62.00
4635;DHT22;2330;48.158;11.816;2023-06-19T13:33:05;33.80;63.20
4635;DHT22;2330;48.158;11.816;2023-06-19T13:35:32;33.50;63.30
4635;DHT22;2330;48.158;11.816;2023-06-19T13:37:58;33.40;63.30
4635;DHT22;2330;48.158;11.816;2023-06-19T13:40:26;33.30;63.10
4635;DHT22;2330;48.158;11.816;2023-06-19T13:42:53;33.20;63.70
4635;DHT22;2330;48.158;11.816;2023-06-19T13:45:21;32.70;64.50
4635;DHT22;2330;48.158;11.816;2023-06-19T13:47:49;32.90;64.30
4635;DHT22;2330;48.158;11.816;2023-06-19T13:50:16;33.10;63.60
4635;DHT22;2330;48.158;11.816;2023-06-19T13:52:45;32.80;63.80
4635;DHT22;2330;48.158;11.816;2023-06-19T13:55:13;32.50;64.70
4635;DHT22;2330;48.158;11.816;2023-06-19T13:57:41;32.70;64.10
4635;DHT22;2330;48.158;11.816;2023-06-19T14:00:10;32.60;64.40
4635;DHT22;2330;48.158;11.816;2023-06-19T14:02:38;31.60;65.10
4635;DHT22;2330;48.158;11.816;2023-06-19T14:05:06;32.00;64.70
4635;DHT22;2330;48.158;11.816;2023-06-19T14:07:34;32.40;64.90
4635;DHT22;2330;48.158;11.816;2023-06-19T14:10:04;32.40;65.60
4635;DHT22;2330;48.158;11.816;2023-06-19T14:12:32;32.40;65.50
4635;DHT22;2330;48.158;11.816;2023-06-19T14:14:59;32.30;64.80
4635;DHT22;2330;48.158;11.816;2023-06-19T14:17:27;32.10;65.00
4635;DHT22;2330;48.158;11.816;2023-06-19T14:19:55;32.10;65.40
4635;DHT22;2330;48.158;11.816;2023-06-19T14:22:23;32.20;65.40
4635;DHT22;2330;48.158;11.816;2023-06-19T14:24:50;32.10;65.00
4635;DHT22;2330;48.158;11.816;2023-06-19T14:27:18;32.30;65.50
4635;DHT22;2330;48.158;11.816;2023-06-19T14:29:45;32.20;65.50
4635;DHT22;2330;48.158;11.816;2023-06-19T14:32:12;32.10;65.10
4635;DHT22;2330;48.158;11.816;2023-06-19T14:34:39;32.20;65.70
4635;DHT22;2330;48.158;11.816;2023-06-19T14:37:08;32.10;65.60
4635;DHT22;2330;48.158;11.816;2023-06-19T14:39:34;32.00;65.40
4635;DHT22;2330;48.158;11.816;2023-06-19T14:42:01;32.00;66.00
4635;DHT22;2330;48.158;11.816;2023-06-19T14:44:28;31.80;65.50
4635;DHT22;2330;48.158;11.816;2023-06-19T14:46:55;31.70;65.90
4635;DHT22;2330;48.158;11.816;2023-06-19T14:49:22;31.80;65.40
4635;DHT22;2330;48.158;11.816;2023-06-19T14:51:49;31.70;65.70
4635;DHT22;2330;48.158;11.816;2023-06-19T14:54:16;31.70;66.30
4635;DHT22;2330;48.158;11.816;2023-06-19T14:56:44;31.60;66.20
4635;DHT22;2330;48.158;11.816;2023-06-19T14:59:15;31.80;66.30
4635;DHT22;2330;48.158;11.816;2023-06-19T15:01:43;32.00;66.40
4635;DHT22;2330;48.158;11.816;2023-06-19T15:04:10;31.80;66.50
4635;DHT22;2330;48.158;11.816;2023-06-19T15:06:37;31.80;67.20
4635;DHT22;2330;48.158;11.816;2023-06-19T15:09:07;31.90;65.80
4635;DHT22;2330;48.158;11.816;2023-06-19T15:11:34;31.90;65.80
4635;DHT22;2330;48.158;11.816;2023-06-19T15:14:01;31.70;65.70
4635;DHT22;2330;48.158;11.816;2023-06-19T15:16:29;31.50;66.50
4635;DHT22;2330;48.158;11.816;2023-06-19T15:18:56;31.70;66.70
4635;DHT22;2330;48.158;11.816;2023-06-19T15:21:23;31.70;65.80
4635;DHT22;2330;48.158;11.816;2023-06-19T15:23:53;31.50;66.20
4635;DHT22;2330;48.158;11.816;2023-06-19T15:26:21;31.40;66.10
4635;DHT22;2330;48.158;11.816;2023-06-19T15:28:49;31.30;66.20
4635;DHT22;2330;48.158;11.816;2023-06-19T15:31:23;31.10;66.60
4635;DHT22;2330;48.158;11.816;2023-06-19T15:33:50;31.10;66.70
4635;DHT22;2330;48.158;11.816;2023-06-19T15:36:18;31.00;66.60
4635;DHT22;2330;48.158;11.816;2023-06-19T15:38:46;30.90;67.90
4635;DHT22;2330;48.158;11.816;2023-06-19T15:41:13;31.00;67.00
4635;DHT22;2330;48.158;11.816;2023-06-19T15:43:41;31.10;66.50
4635;DHT22;2330;48.158;11.816;2023-06-19T15:46:12;31.10;67.00
4635;DHT22;2330;48.158;11.816;2023-06-19T15:48:40;30.90;66.20
4635;DHT22;2330;48.158;11.816;2023-06-19T15:51:07;30.80;66.70
4635;DHT22;2330;48.158;11.816;2023-06-19T15:53:34;30.70;66.70
4635;DHT22;2330;48.158;11.816;2023-06-19T15:56:00;30.70;66.80
4635;DHT22;2330;48.158;11.816;2023-06-19T15:58:27;30.50;67.20